ADDS METAR Data INFO
IDs: Format: Raw Decoded Include TAF

Data at: 0435 UTC 25 Apr 2017

KGGG 250353Z AUTO 16007KT 10SM CLR 18/11 A2972 RMK AO2 SLP059 T01780111
KGGG 250253Z 17006KT 10SM CLR 17/11 A2973 RMK AO2 SLP064 T01720106 55001
KGGG 250153Z 16005KT 10SM CLR 18/11 A2973 RMK AO2 SLP063 T01780106

KGGG 242320Z 2500/2524 17006KT P6SM SCT250
  FM251100 18012G18KT P6SM BKN030
  TEMPO 2511/2514 18008KT OVC015
  FM251600 19016G28KT P6SM SCT040


KTYR 250353Z AUTO 17010KT 10SM CLR 19/09 A2970 RMK AO2 SLP051 T01890094
KTYR 250253Z AUTO 17008KT 10SM CLR 18/10 A2972 RMK AO2 SLP058 T01830100 56007
KTYR 250153Z 16006KT 10SM CLR 18/11 A2972 RMK AO2 SLP060 T01830111

KTYR 242320Z 2500/2524 18007KT P6SM SCT250
  FM251100 18012G20KT P6SM BKN030
  TEMPO 2511/2514 18010KT OVC015
  FM251700 19018G30KT P6SM SCT040



Page loaded:  04:35 UTC  |   09:35 PM Pacific  |   10:35 PM Mountain  |   11:35 PM Central  |   12:35 AM Eastern

 

ADVISORIES

FORECASTS

FORECASTS

OBSERVATIONS

USER TOOLS

ABOUT US